Time;durP1;ratioP1;P1;durP2;ratioP2;P2;SDS_P1;SDS_P2;PMS_P1;PMS_P2;Temp;Humidity;BMP_temperature;BMP_pressure;BME280_temperature;BME280_humidity;BME280_pressure;Samples;Min_cycle;Max_cycle;Signal;HPM_P1;HPM_P2
2022/10/18 00:00:46;;;;;;;559.83;36.75;;;13.60;99.90;;;;;;4967342;28;20054;-64
2022/10/18 00:03:12;;;;;;;516.97;37.03;;;13.60;99.90;;;;;;4966487;28;20421;-65
2022/10/18 00:05:38;;;;;;;645.30;43.47;;;13.70;99.90;;;;;;4969378;28;20050;-64
2022/10/18 00:08:03;;;;;;;602.15;42.08;;;13.70;99.90;;;;;;4963365;28;20039;-63
2022/10/18 00:10:29;;;;;;;615.92;42.55;;;13.80;99.90;;;;;;4967362;28;20031;-64
2022/10/18 00:12:55;;;;;;;705.60;45.85;;;13.80;99.90;;;;;;4971315;28;20089;-64
2022/10/18 00:15:20;;;;;;;610.22;41.47;;;13.70;99.90;;;;;;4976386;28;20043;-65
2022/10/18 00:17:46;;;;;;;555.03;38.95;;;13.80;99.90;;;;;;4968121;28;20045;-64
2022/10/18 00:20:13;;;;;;;643.75;43.53;;;13.80;99.90;;;;;;4966204;28;20051;-64
2022/10/18 00:22:40;;;;;;;647.35;43.22;;;13.80;99.90;;;;;;4968981;28;20049;-64
2022/10/18 00:25:07;;;;;;;500.27;38.38;;;13.80;99.90;;;;;;4971944;28;20043;-62
2022/10/18 00:27:33;;;;;;;610.20;45.65;;;13.80;99.90;;;;;;4964463;28;20039;-62
2022/10/18 00:29:59;;;;;;;644.67;47.15;;;13.90;99.90;;;;;;4971557;28;20485;-62
2022/10/18 00:32:25;;;;;;;609.70;46.30;;;13.90;99.90;;;;;;4971235;28;20046;-62
2022/10/18 00:34:51;;;;;;;561.03;43.70;;;13.80;99.90;;;;;;4963159;28;20082;-62
2022/10/18 00:37:17;;;;;;;595.85;44.72;;;13.70;99.90;;;;;;4965754;28;20070;-63
2022/10/18 00:39:43;;;;;;;588.55;45.58;;;13.80;99.90;;;;;;4975867;28;20047;-65
2022/10/18 00:42:19;;;;;;;596.22;45.42;;;13.80;99.90;;;;;;4967644;28;20066;-64
2022/10/18 00:44:45;;;;;;;668.22;47.67;;;13.80;99.90;;;;;;4967352;28;20408;-63
2022/10/18 00:47:13;;;;;;;557.58;41.03;;;13.80;99.90;;;;;;4975713;28;20544;-63
2022/10/18 00:49:43;;;;;;;614.58;45.05;;;13.80;99.90;;;;;;4964840;28;20118;-64
2022/10/18 00:52:21;;;;;;;539.40;43.60;;;13.70;99.90;;;;;;4968239;28;20039;-64
2022/10/18 00:54:50;;;;;;;587.92;43.50;;;13.70;99.90;;;;;;4956608;28;20035;-62
2022/10/18 00:57:16;;;;;;;699.15;50.53;;;13.70;99.90;;;;;;4958293;28;20057;-63
2022/10/18 00:59:42;;;;;;;592.28;43.65;;;13.70;99.90;;;;;;4975142;28;20114;-62
2022/10/18 01:02:08;;;;;;;239.38;31.73;;;13.70;99.90;;;;;;4966878;28;20093;-62
2022/10/18 01:04:34;;;;;;;210.40;31.15;;;13.70;99.90;;;;;;4975596;28;20039;-62
2022/10/18 01:07:11;;;;;;;289.40;34.47;;;13.70;99.90;;;;;;4968806;28;20126;-63
2022/10/18 01:09:40;;;;;;;237.25;32.03;;;13.80;99.90;;;;;;4958719;28;20039;-64
2022/10/18 01:12:34;;;;;;;235.23;32.72;;;13.80;99.90;;;;;;4974000;28;20078;-63
2022/10/18 01:15:21;;;;;;;257.95;31.65;;;13.80;99.90;;;;;;4959929;28;20490;-64
2022/10/18 01:18:09;;;;;;;280.80;31.88;;;13.80;99.90;;;;;;4963677;28;20039;-62
2022/10/18 01:20:50;;;;;;;326.48;33.75;;;13.80;99.90;;;;;;4956193;28;20039;-62
2022/10/18 01:23:56;;;;;;;481.63;39.22;;;13.80;99.90;;;;;;4962505;28;20569;-63
2022/10/18 01:27:06;;;;;;;560.72;42.25;;;13.80;99.90;;;;;;4966719;28;20074;-63
2022/10/18 01:29:47;;;;;;;434.92;36.40;;;13.80;99.90;;;;;;4970450;28;20043;-63
2022/10/18 01:32:18;;;;;;;399.30;36.28;;;13.80;99.90;;;;;;4965156;28;20050;-62
2022/10/18 01:34:48;;;;;;;397.27;36.45;;;13.80;99.90;;;;;;4966363;28;20557;-62
2022/10/18 01:37:17;;;;;;;376.92;34.70;;;13.80;99.90;;;;;;4975209;28;20038;-62
2022/10/18 01:39:46;;;;;;;307.58;33.17;;;13.80;99.90;;;;;;4969456;28;20057;-62
2022/10/18 01:42:15;;;;;;;289.63;33.22;;;13.80;99.90;;;;;;4970728;28;20121;-62
2022/10/18 01:44:44;;;;;;;443.10;35.78;;;13.70;99.90;;;;;;4966419;28;20595;-63
2022/10/18 01:47:12;;;;;;;387.33;35.80;;;13.80;99.90;;;;;;4967799;28;20372;-62
2022/10/18 01:49:38;;;;;;;377.08;35.83;;;13.80;99.90;;;;;;4969730;28;20039;-62
2022/10/18 01:52:04;;;;;;;351.13;34.50;;;13.70;99.90;;;;;;4961664;28;20123;-62
2022/10/18 01:54:38;;;;;;;502.88;41.67;;;13.70;99.90;;;;;;4955646;28;20047;-62
2022/10/18 01:57:37;;;;;;;416.05;37.05;;;13.70;99.90;;;;;;4959024;28;20482;-62
2022/10/18 02:00:15;;;;;;;454.92;38.42;;;13.70;99.90;;;;;;4963166;28;20078;-63
2022/10/18 02:02:47;;;;;;;618.65;46.00;;;13.70;99.90;;;;;;4955055;28;20047;-63
2022/10/18 02:05:21;;;;;;;574.10;40.92;;;13.60;99.90;;;;;;4960925;28;20078;-62
2022/10/18 02:07:47;;;;;;;663.60;44.53;;;13.60;99.90;;;;;;4962780;28;20050;-63
2022/10/18 02:10:36;;;;;;;556.35;40.05;;;13.60;99.90;;;;;;4971308;28;20047;-62
2022/10/18 02:13:02;;;;;;;521.03;39.88;;;13.60;99.90;;;;;;4970471;28;20061;-62
2022/10/18 02:15:38;;;;;;;561.90;42.30;;;13.50;99.90;;;;;;4960191;28;20030;-63
2022/10/18 02:18:26;;;;;;;662.80;44.08;;;13.50;99.90;;;;;;4965999;28;20038;-63
2022/10/18 02:20:53;;;;;;;592.13;42.97;;;13.50;99.90;;;;;;4962520;28;20035;-62
2022/10/18 02:23:22;;;;;;;399.13;35.65;;;13.50;99.90;;;;;;4968373;28;20262;-62
2022/10/18 02:25:48;;;;;;;383.50;35.17;;;13.50;99.90;;;;;;4968157;28;20039;-64
2022/10/18 02:28:14;;;;;;;574.50;42.63;;;13.50;99.90;;;;;;4957122;28;20038;-62
2022/10/18 02:31:02;;;;;;;572.42;43.80;;;13.40;99.90;;;;;;4962474;28;20046;-63
2022/10/18 02:33:52;;;;;;;455.83;36.05;;;13.50;99.90;;;;;;4966119;28;20067;-62
2022/10/18 02:36:28;;;;;;;364.30;32.47;;;13.50;99.90;;;;;;4972176;28;20624;-63
2022/10/18 02:39:00;;;;;;;256.35;30.15;;;13.50;99.90;;;;;;4959436;28;20075;-62
2022/10/18 02:41:26;;;;;;;294.95;31.05;;;13.50;99.90;;;;;;4964033;28;20066;-64
2022/10/18 02:43:53;;;;;;;395.85;34.08;;;13.40;99.90;;;;;;4974469;28;20046;-63
2022/10/18 02:46:19;;;;;;;383.42;35.55;;;13.40;99.90;;;;;;4973886;28;20035;-63
2022/10/18 02:48:45;;;;;;;403.65;35.95;;;13.40;99.90;;;;;;4959510;28;20058;-62
2022/10/18 02:51:10;;;;;;;303.88;32.00;;;13.40;99.90;;;;;;4967485;28;20043;-63
2022/10/18 02:53:36;;;;;;;224.35;29.90;;;13.40;99.90;;;;;;4954095;28;20031;-64
2022/10/18 02:56:02;;;;;;;384.40;33.20;;;13.40;99.90;;;;;;4954039;28;20494;-62
2022/10/18 02:58:28;;;;;;;355.73;33.33;;;13.40;99.90;;;;;;4964927;28;20034;-62
2022/10/18 03:00:53;;;;;;;501.85;39.72;;;13.30;99.90;;;;;;4973120;28;20527;-62
2022/10/18 03:03:19;;;;;;;452.20;37.78;;;13.30;99.90;;;;;;4960573;28;20043;-63
2022/10/18 03:05:48;;;;;;;435.30;37.05;;;13.20;99.90;;;;;;4965380;28;20130;-63
2022/10/18 03:08:14;;;;;;;413.17;35.67;;;13.20;99.90;;;;;;4970937;28;20090;-62
2022/10/18 03:10:42;;;;;;;208.90;29.52;;;13.20;99.90;;;;;;4968231;28;20034;-62
2022/10/18 03:13:07;;;;;;;386.13;35.35;;;13.20;99.90;;;;;;4967691;28;20047;-62
2022/10/18 03:15:33;;;;;;;361.90;34.58;;;13.20;99.90;;;;;;4965584;28;20046;-63
2022/10/18 03:17:58;;;;;;;347.27;34.22;;;13.10;99.90;;;;;;4973253;28;20039;-62
2022/10/18 03:20:24;;;;;;;352.25;34.78;;;13.10;99.90;;;;;;4962090;28;20391;-62
2022/10/18 03:22:49;;;;;;;369.95;34.08;;;13.00;99.90;;;;;;4966459;28;20035;-62
2022/10/18 03:25:15;;;;;;;304.33;33.47;;;13.00;99.90;;;;;;4970668;28;20054;-62
2022/10/18 03:27:41;;;;;;;257.38;30.48;;;13.00;99.90;;;;;;4963225;28;20039;-62
2022/10/18 03:30:07;;;;;;;120.63;25.52;;;13.00;99.90;;;;;;4964220;28;20132;-63
2022/10/18 03:32:33;;;;;;;199.20;28.10;;;12.90;99.90;;;;;;4964572;28;20043;-62
2022/10/18 03:34:58;;;;;;;368.17;32.33;;;13.00;99.90;;;;;;4971633;28;20049;-62
2022/10/18 03:37:24;;;;;;;348.63;32.47;;;12.90;99.90;;;;;;4963706;28;20381;-62
2022/10/18 03:39:49;;;;;;;290.67;28.23;;;12.90;99.90;;;;;;4971803;28;20126;-63
2022/10/18 03:42:15;;;;;;;185.15;25.92;;;12.90;99.90;;;;;;4963897;28;20093;-62
2022/10/18 03:44:41;;;;;;;297.42;30.63;;;12.90;99.90;;;;;;4968958;28;20517;-62
2022/10/18 03:47:06;;;;;;;387.13;32.13;;;12.90;99.90;;;;;;4960808;28;20031;-62
2022/10/18 03:49:32;;;;;;;129.88;23.05;;;12.80;99.90;;;;;;4966253;28;20074;-63
2022/10/18 03:51:57;;;;;;;178.93;25.30;;;12.80;99.90;;;;;;4956145;28;20043;-63
2022/10/18 03:54:23;;;;;;;250.15;25.23;;;12.80;99.90;;;;;;4949973;28;20402;-62
2022/10/18 03:56:48;;;;;;;238.80;24.40;;;12.80;99.90;;;;;;4953518;28;20035;-62
2022/10/18 03:59:15;;;;;;;191.80;24.38;;;12.80;99.90;;;;;;4961965;28;20043;-64
2022/10/18 04:01:41;;;;;;;89.95;21.50;;;12.80;99.90;;;;;;4968672;28;20126;-62
2022/10/18 04:04:07;;;;;;;178.05;24.48;;;12.70;99.90;;;;;;4963745;28;20114;-65
2022/10/18 04:06:32;;;;;;;279.73;27.52;;;12.70;99.90;;;;;;4972530;28;20035;-62
2022/10/18 04:08:58;;;;;;;344.38;29.30;;;12.80;99.90;;;;;;4957032;28;20176;-63
2022/10/18 04:11:24;;;;;;;329.30;28.40;;;12.80;99.90;;;;;;4962139;28;20433;-62
2022/10/18 04:13:49;;;;;;;510.92;37.03;;;12.70;99.90;;;;;;4967114;28;20042;-62
2022/10/18 04:16:15;;;;;;;240.13;26.40;;;12.70;99.90;;;;;;4970079;28;20501;-62
2022/10/18 04:18:40;;;;;;;182.35;24.25;;;12.70;99.90;;;;;;4958698;28;20078;-63
2022/10/18 04:21:06;;;;;;;187.10;25.02;;;12.70;99.90;;;;;;4963820;28;20042;-62
2022/10/18 04:23:31;;;;;;;286.42;27.58;;;12.70;99.90;;;;;;4970785;28;20092;-62
2022/10/18 04:25:57;;;;;;;378.92;32.63;;;12.70;99.90;;;;;;4972731;28;20053;-63
2022/10/18 04:28:22;;;;;;;230.90;26.98;;;12.60;99.90;;;;;;4953991;28;20035;-62
2022/10/18 04:30:52;;;;;;;352.23;30.08;;;12.60;99.90;;;;;;4960483;28;20039;-66
2022/10/18 04:33:19;;;;;;;277.55;29.33;;;12.50;99.90;;;;;;4967030;28;20043;-63
2022/10/18 04:35:45;;;;;;;270.35;27.90;;;12.60;99.90;;;;;;4956711;28;20074;-62
2022/10/18 04:38:10;;;;;;;104.35;21.90;;;12.50;99.90;;;;;;4960844;28;20039;-62
2022/10/18 04:40:36;;;;;;;102.78;21.05;;;12.60;99.90;;;;;;4972071;28;20046;-62
2022/10/18 04:43:02;;;;;;;83.10;21.58;;;12.60;99.90;;;;;;4964985;28;20106;-62
2022/10/18 04:45:28;;;;;;;189.27;24.83;;;12.50;99.90;;;;;;4970776;28;20069;-63
2022/10/18 04:47:53;;;;;;;235.65;26.92;;;12.60;99.90;;;;;;4960964;28;20039;-63
2022/10/18 04:50:19;;;;;;;249.07;27.92;;;12.50;99.90;;;;;;4966175;28;20128;-62
2022/10/18 04:52:44;;;;;;;332.27;31.30;;;12.50;99.90;;;;;;4966650;28;20233;-62
2022/10/18 04:55:10;;;;;;;193.18;27.00;;;12.50;99.90;;;;;;4967740;28;20097;-62
2022/10/18 04:57:36;;;;;;;224.27;27.17;;;12.60;99.90;;;;;;4975607;28;20147;-62
2022/10/18 05:00:01;;;;;;;291.15;30.30;;;12.50;99.90;;;;;;4969197;28;20058;-62
2022/10/18 05:02:27;;;;;;;376.98;33.35;;;12.60;99.90;;;;;;4957096;28;20054;-62
2022/10/18 05:04:53;;;;;;;272.00;29.30;;;12.50;99.90;;;;;;4960119;28;20043;-63
2022/10/18 05:07:18;;;;;;;203.77;26.40;;;12.50;99.90;;;;;;4960502;28;20082;-62
2022/10/18 05:09:44;;;;;;;104.90;22.95;;;12.60;99.90;;;;;;4962432;28;20394;-64
2022/10/18 05:12:09;;;;;;;102.47;24.42;;;12.60;99.90;;;;;;4963006;28;20139;-62
2022/10/18 05:14:35;;;;;;;93.45;22.42;;;12.60;99.90;;;;;;4957332;28;20114;-62
2022/10/18 05:17:01;;;;;;;93.68;22.25;;;12.60;99.90;;;;;;4963095;28;20373;-62
2022/10/18 05:19:27;;;;;;;149.07;24.02;;;12.60;99.90;;;;;;4970711;28;20050;-62
2022/10/18 05:21:52;;;;;;;166.05;23.52;;;12.70;99.90;;;;;;4954531;28;20036;-63
2022/10/18 05:24:18;;;;;;;101.53;21.98;;;12.60;99.90;;;;;;4953659;28;20047;-62
2022/10/18 05:26:44;;;;;;;100.20;22.65;;;12.70;99.90;;;;;;4954557;28;20039;-62
2022/10/18 05:29:09;;;;;;;108.97;22.55;;;12.70;99.90;;;;;;4970702;28;20074;-62
2022/10/18 05:31:35;;;;;;;233.35;28.10;;;12.70;99.90;;;;;;4967079;28;20156;-63
2022/10/18 05:34:01;;;;;;;277.00;29.20;;;12.70;99.90;;;;;;4963494;28;20050;-63
2022/10/18 05:36:26;;;;;;;276.55;29.55;;;12.60;99.90;;;;;;4968494;28;20047;-62
2022/10/18 05:38:52;;;;;;;172.77;25.00;;;12.70;99.90;;;;;;4967018;28;20453;-62
2022/10/18 05:41:18;;;;;;;209.55;27.95;;;12.70;99.90;;;;;;4962161;28;20042;-62
2022/10/18 05:43:44;;;;;;;329.27;32.20;;;12.80;99.90;;;;;;4974023;28;20038;-62
2022/10/18 05:46:11;;;;;;;281.20;29.80;;;12.70;99.90;;;;;;4964240;28;20042;-63
2022/10/18 05:48:37;;;;;;;82.28;22.80;;;12.80;99.90;;;;;;4974668;28;20042;-63
2022/10/18 05:51:03;;;;;;;119.78;23.55;;;12.70;99.90;;;;;;4960692;28;20035;-61
2022/10/18 05:53:29;;;;;;;121.85;22.92;;;12.70;99.90;;;;;;4958167;28;20093;-62
2022/10/18 05:55:59;;;;;;;154.18;23.15;;;12.80;99.90;;;;;;4956785;28;20051;-62
2022/10/18 05:58:25;;;;;;;120.95;22.63;;;12.80;99.90;;;;;;4966350;28;20046;-62
2022/10/18 06:00:50;;;;;;;166.13;21.85;;;12.70;99.90;;;;;;4963404;28;20047;-62
2022/10/18 06:03:16;;;;;;;94.72;19.17;;;12.70;99.90;;;;;;4959276;28;20043;-63
2022/10/18 06:05:42;;;;;;;132.82;20.48;;;12.70;99.90;;;;;;4961118;28;20129;-63
2022/10/18 06:08:07;;;;;;;105.10;18.33;;;12.70;99.90;;;;;;4961071;28;20057;-64
2022/10/18 06:10:33;;;;;;;109.55;19.92;;;12.70;99.90;;;;;;4968627;28;20067;-62
2022/10/18 06:12:59;;;;;;;92.75;18.50;;;12.70;99.90;;;;;;4967848;28;20406;-62
2022/10/18 06:15:24;;;;;;;99.70;18.52;;;12.50;99.90;;;;;;4950691;28;20075;-61
2022/10/18 06:17:50;;;;;;;130.60;19.17;;;12.50;99.90;;;;;;4960716;28;20035;-64
2022/10/18 06:20:16;;;;;;;121.90;19.35;;;12.50;99.90;;;;;;4969788;28;20133;-62
2022/10/18 06:22:41;;;;;;;118.30;20.80;;;12.40;99.90;;;;;;4968854;28;20049;-62
2022/10/18 06:25:07;;;;;;;112.80;18.40;;;12.40;99.90;;;;;;4961019;28;20047;-63
2022/10/18 06:27:33;;;;;;;126.53;19.33;;;12.40;99.90;;;;;;4968879;28;20050;-62
2022/10/18 06:29:59;;;;;;;128.55;19.08;;;12.40;99.90;;;;;;4957256;28;20046;-64
2022/10/18 06:32:25;;;;;;;126.15;19.00;;;12.30;99.90;;;;;;4962726;28;20047;-62
2022/10/18 06:34:50;;;;;;;137.35;18.13;;;12.40;99.90;;;;;;4965218;28;20173;-62
2022/10/18 06:37:16;;;;;;;110.93;17.73;;;12.30;99.90;;;;;;4974147;28;20406;-62
2022/10/18 06:39:42;;;;;;;155.13;18.80;;;12.30;99.90;;;;;;4965800;28;20409;-61
2022/10/18 06:42:07;;;;;;;115.57;18.83;;;12.30;99.90;;;;;;4962820;28;20147;-65
2022/10/18 06:44:33;;;;;;;119.80;18.75;;;12.30;99.90;;;;;;4973908;28;20054;-63
2022/10/18 06:46:58;;;;;;;203.38;21.88;;;12.30;99.90;;;;;;4969476;28;20043;-63
2022/10/18 06:49:24;;;;;;;165.73;19.10;;;12.30;99.90;;;;;;4965864;28;20038;-62
2022/10/18 06:51:49;;;;;;;154.60;17.73;;;12.40;99.90;;;;;;4962591;28;20047;-63
2022/10/18 06:54:15;;;;;;;184.98;18.75;;;12.30;99.90;;;;;;4952829;28;20070;-64
2022/10/18 06:56:41;;;;;;;164.85;18.17;;;12.30;99.90;;;;;;4964945;28;20097;-62
2022/10/18 06:59:06;;;;;;;147.32;16.65;;;12.30;99.90;;;;;;4965233;28;20093;-63
2022/10/18 07:01:32;;;;;;;200.02;17.35;;;12.30;99.90;;;;;;4973057;28;20046;-63
2022/10/18 07:03:58;;;;;;;198.32;19.17;;;12.30;99.90;;;;;;4951499;28;20042;-62
2022/10/18 07:06:24;;;;;;;233.25;20.75;;;12.40;99.90;;;;;;4947943;28;20035;-64
2022/10/18 07:08:51;;;;;;;198.60;17.42;;;12.30;99.90;;;;;;4961349;28;20053;-64
2022/10/18 07:11:25;;;;;;;214.13;18.05;;;12.30;99.90;;;;;;4955084;28;20039;-62
2022/10/18 07:13:53;;;;;;;202.20;18.02;;;12.40;99.90;;;;;;4955251;28;20039;-62
2022/10/18 07:16:19;;;;;;;244.60;17.52;;;12.40;99.90;;;;;;4945079;28;20039;-62
2022/10/18 07:18:49;;;;;;;192.43;18.02;;;12.30;99.90;;;;;;4953452;28;20035;-63
2022/10/18 07:21:20;;;;;;;195.17;17.77;;;12.30;99.90;;;;;;4954600;28;20442;-62
2022/10/18 07:23:47;;;;;;;213.48;17.05;;;12.40;99.90;;;;;;4965597;28;20282;-63
2022/10/18 07:26:17;;;;;;;151.60;15.38;;;12.40;99.90;;;;;;4969193;28;20050;-63
2022/10/18 07:28:44;;;;;;;154.75;15.85;;;12.40;99.90;;;;;;4965383;28;20070;-63
2022/10/18 07:31:10;;;;;;;181.20;18.23;;;12.40;99.90;;;;;;4959688;28;20047;-63
2022/10/18 07:33:37;;;;;;;152.57;17.50;;;12.60;99.90;;;;;;4963682;28;20129;-63
2022/10/18 07:36:08;;;;;;;164.38;18.02;;;12.60;99.90;;;;;;4971268;28;20502;-62
2022/10/18 07:38:34;;;;;;;172.18;16.20;;;12.60;99.90;;;;;;4960853;28;20401;-63
2022/10/18 07:41:01;;;;;;;135.38;16.05;;;12.50;99.90;;;;;;4963849;28;20031;-62
2022/10/18 07:43:27;;;;;;;173.02;16.92;;;12.60;99.90;;;;;;4957749;28;20054;-62
2022/10/18 07:45:55;;;;;;;168.43;16.40;;;12.60;99.90;;;;;;4952210;28;20114;-66
2022/10/18 07:48:20;;;;;;;110.70;13.55;;;12.60;99.90;;;;;;4968204;28;20501;-65
2022/10/18 07:50:46;;;;;;;136.15;15.65;;;12.60;99.90;;;;;;4958595;28;20043;-64
2022/10/18 07:53:12;;;;;;;182.75;16.58;;;12.60;99.90;;;;;;4963449;28;20047;-63
2022/10/18 07:55:38;;;;;;;143.77;14.85;;;12.60;99.90;;;;;;4960962;28;20039;-65
2022/10/18 07:58:04;;;;;;;255.20;19.40;;;12.60;99.90;;;;;;4962474;28;20043;-63
2022/10/18 08:00:29;;;;;;;199.38;15.70;;;12.70;99.90;;;;;;4952721;28;20039;-64
2022/10/18 08:02:57;;;;;;;203.82;15.75;;;12.60;99.90;;;;;;4962425;28;20058;-65
2022/10/18 08:05:23;;;;;;;156.70;16.23;;;12.60;99.90;;;;;;4966667;28;20035;-63
2022/10/18 08:07:48;;;;;;;184.30;16.90;;;12.60;99.90;;;;;;4956755;28;20620;-64
2022/10/18 08:10:14;;;;;;;134.13;14.60;;;12.60;99.90;;;;;;4955709;28;20042;-64
2022/10/18 08:12:40;;;;;;;160.50;16.23;;;12.60;99.90;;;;;;4960389;28;20087;-65
2022/10/18 08:15:06;;;;;;;175.02;16.65;;;12.80;99.90;;;;;;4957794;28;20484;-63
2022/10/18 08:17:32;;;;;;;150.88;15.93;;;12.80;99.90;;;;;;4951192;28;20043;-63
2022/10/18 08:19:58;;;;;;;178.98;17.80;;;12.90;99.90;;;;;;4957640;28;20057;-64
2022/10/18 08:22:24;;;;;;;265.92;17.95;;;13.00;99.90;;;;;;4964732;28;20046;-64
2022/10/18 08:24:49;;;;;;;171.48;15.23;;;13.00;99.90;;;;;;4970135;28;20038;-64
2022/10/18 08:27:15;;;;;;;133.63;15.32;;;13.00;99.90;;;;;;4967755;28;20043;-64
2022/10/18 08:29:41;;;;;;;169.38;16.63;;;13.00;99.90;;;;;;4965002;28;20041;-63
2022/10/18 08:32:06;;;;;;;138.32;14.73;;;13.10;99.90;;;;;;4966751;28;20101;-63
2022/10/18 08:34:33;;;;;;;193.68;17.65;;;13.00;99.90;;;;;;4964433;28;20030;-64
2022/10/18 08:36:59;;;;;;;135.75;16.20;;;13.20;99.90;;;;;;4951123;28;20075;-66
2022/10/18 08:39:25;;;;;;;98.15;14.60;;;13.30;99.90;;;;;;4954441;28;20135;-63
2022/10/18 08:42:27;;;;;;;148.70;16.95;;;13.30;99.90;;;;;;4966891;28;20572;-65
2022/10/18 08:44:54;;;;;;;150.55;14.75;;;13.30;99.90;;;;;;4965115;28;20042;-64
2022/10/18 08:47:28;;;;;;;138.98;14.80;;;13.30;99.90;;;;;;4972010;28;20039;-67
2022/10/18 08:50:10;;;;;;;139.13;14.18;;;13.30;99.90;;;;;;4969298;28;20035;-65
2022/10/18 08:52:52;;;;;;;65.03;13.05;;;13.30;99.90;;;;;;4962357;28;20047;-65
2022/10/18 08:55:27;;;;;;;56.03;12.82;;;13.40;99.90;;;;;;4958160;28;20035;-65
2022/10/18 08:57:55;;;;;;;55.65;12.95;;;13.50;99.90;;;;;;4963440;28;20082;-66
2022/10/18 09:00:23;;;;;;;69.95;13.52;;;13.50;99.90;;;;;;4960103;28;20054;-66
2022/10/18 09:03:13;;;;;;;71.28;13.35;;;13.50;99.90;;;;;;4964996;28;20126;-66
2022/10/18 09:06:15;;;;;;;28.50;12.88;;;13.60;99.90;;;;;;4963708;28;20043;-66
2022/10/18 09:08:56;;;;;;;34.13;13.57;;;13.70;99.90;;;;;;4962785;28;20066;-65
2022/10/18 09:11:49;;;;;;;23.20;12.90;;;13.80;99.90;;;;;;4969380;28;20126;-65
2022/10/18 09:14:30;;;;;;;27.88;13.45;;;13.90;99.90;;;;;;4966566;28;20090;-63
2022/10/18 09:17:20;;;;;;;48.55;14.30;;;14.00;99.90;;;;;;4967419;28;20057;-65
2022/10/18 09:20:05;;;;;;;23.17;13.38;;;14.10;99.90;;;;;;4963431;28;20047;-64
2022/10/18 09:22:52;;;;;;;19.45;12.93;;;14.10;99.90;;;;;;4966605;28;20042;-64
2022/10/18 09:25:44;;;;;;;23.02;14.13;;;14.00;99.90;;;;;;4975346;28;20046;-65
2022/10/18 09:28:15;;;;;;;22.08;14.40;;;14.00;99.90;;;;;;4960213;28;20141;-65
2022/10/18 09:30:59;;;;;;;25.90;14.73;;;14.20;99.90;;;;;;4964183;28;20549;-65
2022/10/18 09:33:24;;;;;;;24.42;14.32;;;14.40;99.90;;;;;;4969739;28;20483;-65
2022/10/18 09:35:59;;;;;;;20.63;12.80;;;14.40;99.90;;;;;;4955415;28;20077;-65
2022/10/18 09:38:30;;;;;;;23.15;13.82;;;14.30;99.90;;;;;;4965941;28;20086;-65
2022/10/18 09:41:24;;;;;;;23.95;13.23;;;14.20;99.90;;;;;;4973080;28;20046;-64
2022/10/18 09:43:56;;;;;;;23.92;13.63;;;14.10;99.90;;;;;;4968046;28;20117;-65
2022/10/18 09:46:26;;;;;;;21.67;13.18;;;14.10;99.90;;;;;;4961040;28;20043;-65
2022/10/18 09:49:19;;;;;;;18.67;13.50;;;14.10;99.90;;;;;;4955562;28;20739;-65
2022/10/18 09:51:47;;;;;;;21.67;13.63;;;14.10;99.90;;;;;;4949750;28;20059;-65
2022/10/18 09:54:40;;;;;;;26.50;13.05;;;14.10;99.90;;;;;;4964640;28;20089;-65
2022/10/18 09:57:06;;;;;;;25.02;13.48;;;14.10;99.90;;;;;;4955495;28;20139;-65
2022/10/18 09:59:49;;;;;;;23.77;13.70;;;14.00;99.90;;;;;;4959194;28;20121;-65
2022/10/18 10:02:20;;;;;;;21.50;12.63;;;14.20;99.90;;;;;;4963307;28;20051;-65
2022/10/18 10:04:47;;;;;;;24.00;13.60;;;14.30;99.90;;;;;;4974456;28;20050;-65
2022/10/18 10:07:33;;;;;;;24.88;13.07;;;14.40;99.90;;;;;;4969818;28;20505;-64
2022/10/18 10:10:07;;;;;;;25.88;13.15;;;14.30;99.90;;;;;;4964906;28;20039;-65
2022/10/18 10:12:36;;;;;;;26.02;12.82;;;14.40;99.90;;;;;;4966155;28;20046;-65
2022/10/18 10:15:24;;;;;;;26.77;13.05;;;14.40;99.90;;;;;;4970008;28;20039;-65
2022/10/18 10:18:20;;;;;;;18.48;11.75;;;14.50;99.90;;;;;;4963999;28;20039;-66
2022/10/18 10:20:56;;;;;;;23.05;11.80;;;14.50;99.90;;;;;;4962678;28;20409;-66
2022/10/18 10:23:58;;;;;;;20.67;11.52;;;14.50;99.90;;;;;;4965543;28;20079;-64
2022/10/18 10:26:27;;;;;;;26.85;12.77;;;14.60;99.90;;;;;;4913385;29;20094;-65
2022/10/18 10:28:53;;;;;;;21.33;10.52;;;14.70;99.90;;;;;;4958640;28;20054;-66
2022/10/18 10:31:24;;;;;;;19.17;9.02;;;14.80;99.90;;;;;;4960546;28;20051;-65
2022/10/18 10:34:18;;;;;;;15.32;7.65;;;14.80;99.90;;;;;;4973442;28;20070;-65
2022/10/18 10:36:50;;;;;;;17.80;8.13;;;14.90;99.90;;;;;;4967314;28;20046;-65
2022/10/18 10:39:18;;;;;;;18.52;8.88;;;15.00;99.90;;;;;;4958680;28;20043;-65
2022/10/18 10:41:59;;;;;;;20.10;8.15;;;15.00;99.90;;;;;;4955353;28;20035;-65
2022/10/18 10:44:29;;;;;;;13.52;6.93;;;15.10;99.90;;;;;;4964380;28;20541;-66
2022/10/18 10:46:55;;;;;;;20.92;6.72;;;15.10;99.90;;;;;;4973373;28;20042;-66
2022/10/18 10:49:39;;;;;;;18.95;6.70;;;15.10;99.90;;;;;;4966463;28;20047;-66
2022/10/18 10:52:05;;;;;;;16.48;5.93;;;15.20;99.90;;;;;;4965727;28;20533;-65
2022/10/18 10:54:35;;;;;;;14.90;5.95;;;15.30;99.90;;;;;;4965296;28;20162;-66
2022/10/18 10:57:09;;;;;;;17.53;5.53;;;15.50;99.90;;;;;;4962583;28;20050;-66
2022/10/18 10:59:50;;;;;;;14.95;5.72;;;15.50;99.90;;;;;;4970075;28;20046;-66
2022/10/18 11:02:20;;;;;;;12.27;5.18;;;15.60;99.90;;;;;;4965108;28;20039;-66
2022/10/18 11:04:48;;;;;;;9.27;4.60;;;15.60;99.90;;;;;;4973554;28;20045;-66
2022/10/18 11:07:39;;;;;;;16.38;4.75;;;15.60;99.90;;;;;;4969938;28;20506;-65
2022/10/18 11:10:10;;;;;;;13.75;5.15;;;15.60;99.90;;;;;;4969029;28;20047;-66
2022/10/18 11:12:41;;;;;;;12.70;5.07;;;15.80;99.90;;;;;;4965397;28;20038;-66
2022/10/18 11:15:12;;;;;;;15.20;5.40;;;15.90;99.90;;;;;;4953136;28;20311;-65
2022/10/18 11:17:38;;;;;;;;;;;15.90;99.90;;;;;;4964561;28;20642;-64
2022/10/18 11:20:08;;;;;;;14.73;3.90;;;15.90;99.90;;;;;;4949796;28;19925;-66
2022/10/18 11:22:45;;;;;;;12.48;2.83;;;16.00;99.90;;;;;;4962895;28;20069;-66
2022/10/18 11:25:14;;;;;;;8.32;3.13;;;16.10;99.90;;;;;;4961330;28;20039;-65
2022/10/18 11:27:49;;;;;;;15.55;3.28;;;16.10;99.90;;;;;;4962992;28;20446;-66
2022/10/18 11:30:35;;;;;;;12.32;3.50;;;16.10;99.90;;;;;;4959145;28;20047;-66
2022/10/18 11:33:45;;;;;;;9.95;2.90;;;16.20;99.90;;;;;;4965924;28;20504;-66
2022/10/18 11:36:35;;;;;;;9.80;2.70;;;16.20;99.90;;;;;;4961438;28;20051;-66
2022/10/18 11:39:25;;;;;;;9.80;1.88;;;16.20;99.90;;;;;;4968685;28;20101;-66
2022/10/18 11:41:56;;;;;;;9.88;2.03;;;16.00;99.90;;;;;;4965701;28;20079;-66
2022/10/18 11:44:45;;;;;;;9.55;2.10;;;15.90;99.90;;;;;;4969750;28;20126;-65
2022/10/18 11:47:30;;;;;;;10.23;2.20;;;15.90;99.90;;;;;;4960977;28;20043;-66
2022/10/18 11:50:20;;;;;;;9.68;2.33;;;16.00;99.90;;;;;;4963139;28;20039;-66
2022/10/18 11:53:13;;;;;;;5.93;1.73;;;16.10;99.90;;;;;;4956319;28;20110;-66
2022/10/18 11:56:13;;;;;;;9.00;2.13;;;16.20;99.90;;;;;;4951644;28;20039;-66
2022/10/18 11:58:53;;;;;;;8.88;1.90;;;16.20;99.90;;;;;;4961093;28;20501;-66
2022/10/18 12:01:28;;;;;;;14.02;2.28;;;16.30;99.90;;;;;;4970487;28;20042;-65
2022/10/18 12:04:23;;;;;;;8.80;2.13;;;16.40;99.90;;;;;;4966036;28;20046;-65
2022/10/18 12:06:51;;;;;;;8.38;1.90;;;16.40;99.90;;;;;;4964319;28;20038;-66
2022/10/18 12:09:31;;;;;;;9.57;1.75;;;16.40;99.90;;;;;;4964408;28;20093;-66
2022/10/18 12:12:35;;;;;;;11.52;2.45;;;16.40;99.90;;;;;;4966202;28;20065;-66
2022/10/18 12:15:05;;;;;;;7.57;2.00;;;16.40;99.90;;;;;;4961016;28;20046;-66
2022/10/18 12:17:39;;;;;;;14.35;2.65;;;16.50;99.90;;;;;;4971868;28;20046;-66
2022/10/18 12:20:15;;;;;;;7.30;1.60;;;16.50;99.90;;;;;;4957547;28;20154;-66
2022/10/18 12:22:48;;;;;;;12.63;2.05;;;16.50;99.90;;;;;;4968764;28;20035;-66
2022/10/18 12:25:16;;;;;;;5.72;1.95;;;16.50;99.90;;;;;;4964370;28;20043;-66
2022/10/18 12:27:51;;;;;;;8.68;2.00;;;16.50;99.90;;;;;;4971279;28;20051;-66
2022/10/18 12:30:45;;;;;;;11.02;1.70;;;16.50;99.90;;;;;;4962474;28;20047;-65
2022/10/18 12:33:17;;;;;;;9.20;1.80;;;16.60;99.90;;;;;;4961755;28;20053;-66
2022/10/18 12:35:59;;;;;;;13.50;2.28;;;16.60;99.90;;;;;;4964319;28;20039;-66
2022/10/18 12:38:35;;;;;;;8.50;1.80;;;16.60;99.90;;;;;;4957732;28;20079;-66
2022/10/18 12:41:02;;;;;;;7.75;1.60;;;16.60;99.90;;;;;;4960125;28;20051;-65
2022/10/18 12:43:38;;;;;;;11.10;2.05;;;16.60;99.90;;;;;;4971288;28;20043;-65